Time;durP1;ratioP1;P1;durP2;ratioP2;P2;SDS_P1;SDS_P2;PMS_P1;PMS_P2;Temp;Humidity;BMP_temperature;BMP_pressure;BME280_temperature;BME280_humidity;BME280_pressure;Samples;Min_cycle;Max_cycle;Signal;HPM_P1;HPM_P2
2022/04/05 00:00:24;;;;;;;6.85;6.25;;;;;;;;;;5103230;28;20204;-68
2022/04/05 00:02:50;;;;;;;7.25;6.65;;;;;;;;;;5103260;28;20294;-67
2022/04/05 00:05:17;;;;;;;6.20;5.70;;;;;;;;;;5103131;28;20216;-68
2022/04/05 00:07:45;;;;;;;6.57;5.97;;;;;;;;;;5102916;28;20425;-68
2022/04/05 00:10:11;;;;;;;6.28;5.78;;;;;;;;;;5103488;28;20249;-67
2022/04/05 00:12:37;;;;;;;6.78;6.25;;;;;;;;;;5102881;28;20196;-67
2022/04/05 00:15:05;;;;;;;7.10;6.50;;;;;;;;;;5102972;28;20195;-67
2022/04/05 00:17:32;;;;;;;8.55;6.40;;;;;;;;;;5102825;28;20202;-67
2022/04/05 00:19:58;;;;;;;6.90;6.07;;;;;;;;;;5103057;28;20195;-67
2022/04/05 00:22:25;;;;;;;7.45;6.50;;;;;;;;;;5103274;28;20196;-67
2022/04/05 00:24:52;;;;;;;6.55;5.85;;;;;;;;;;5102552;28;20269;-67
2022/04/05 00:27:19;;;;;;;6.90;6.10;;;;;;;;;;5102556;28;20203;-67
2022/04/05 00:29:45;;;;;;;7.05;6.38;;;;;;;;;;5103032;28;20199;-67
2022/04/05 00:32:12;;;;;;;6.85;6.25;;;;;;;;;;5102665;28;20196;-67
2022/04/05 00:34:39;;;;;;;7.63;6.07;;;;;;;;;;5102858;28;20202;-67
2022/04/05 00:37:05;;;;;;;6.25;5.75;;;;;;;;;;5102499;28;20196;-67
2022/04/05 00:39:31;;;;;;;7.07;6.20;;;;;;;;;;5102346;28;20196;-69
2022/04/05 00:41:59;;;;;;;6.25;5.65;;;;;;;;;;5102828;28;20199;-67
2022/04/05 00:44:25;;;;;;;6.70;6.10;;;;;;;;;;5102552;28;20215;-67
2022/04/05 00:46:53;;;;;;;7.18;6.47;;;;;;;;;;5102491;28;20195;-67
2022/04/05 00:49:24;;;;;;;6.10;5.70;;;;;;;;;;5102541;28;20248;-68
2022/04/05 00:51:50;;;;;;;6.80;6.22;;;;;;;;;;5102484;28;20276;-67
2022/04/05 00:54:17;;;;;;;6.82;6.13;;;;;;;;;;5102321;28;20495;-67
2022/04/05 00:56:43;;;;;;;6.97;6.38;;;;;;;;;;5102142;28;20503;-67
2022/04/05 00:59:11;;;;;;;7.13;6.45;;;;;;;;;;5102509;28;20212;-67
2022/04/05 01:01:38;;;;;;;7.28;6.57;;;;;;;;;;5102257;28;20249;-67
2022/04/05 01:04:04;;;;;;;6.57;5.90;;;;;;;;;;5102567;28;20245;-67
2022/04/05 01:06:33;;;;;;;6.45;5.78;;;;;;;;;;5101868;28;20460;-67
2022/04/05 01:08:59;;;;;;;6.55;5.95;;;;;;;;;;5102488;28;20196;-67
2022/04/05 01:11:26;;;;;;;7.53;6.55;;;;;;;;;;5102101;28;20200;-67
2022/04/05 01:13:53;;;;;;;7.43;6.43;;;;;;;;;;5102337;28;20199;-67
2022/04/05 01:16:20;;;;;;;9.73;6.20;;;;;;;;;;5102109;28;20195;-67
2022/04/05 01:18:47;;;;;;;7.20;6.50;;;;;;;;;;5102179;28;20196;-67
2022/04/05 01:21:14;;;;;;;7.10;6.40;;;;;;;;;;5101927;28;20196;-67
2022/04/05 01:23:44;;;;;;;6.47;5.88;;;;;;;;;;5102228;28;20536;-67
2022/04/05 01:26:11;;;;;;;6.57;6.07;;;;;;;;;;5101991;28;20511;-67
2022/04/05 01:28:37;;;;;;;6.55;5.85;;;;;;;;;;5102219;28;20196;-67
2022/04/05 01:31:03;;;;;;;6.75;6.13;;;;;;;;;;5101887;28;20192;-68
2022/04/05 01:33:29;;;;;;;5.90;5.50;;;;;;;;;;5102021;28;20192;-67
2022/04/05 01:35:56;;;;;;;6.88;6.15;;;;;;;;;;5101824;28;20429;-68
2022/04/05 01:38:22;;;;;;;6.55;5.80;;;;;;;;;;5102144;28;20429;-67
2022/04/05 01:40:51;;;;;;;5.95;5.53;;;;;;;;;;5102062;28;20196;-67
2022/04/05 01:43:17;;;;;;;6.28;5.72;;;;;;;;;;5101811;28;20230;-68
2022/04/05 01:45:44;;;;;;;6.10;5.47;;;;;;;;;;5101122;28;20226;-67
2022/04/05 01:48:10;;;;;;;6.07;5.60;;;;;;;;;;5101853;28;20489;-67
2022/04/05 01:50:36;;;;;;;8.00;6.45;;;;;;;;;;5101994;28;20541;-67
2022/04/05 01:53:03;;;;;;;7.63;6.32;;;;;;;;;;5101905;28;20230;-67
2022/04/05 01:55:29;;;;;;;7.35;6.38;;;;;;;;;;5101806;28;20199;-67
2022/04/05 01:57:57;;;;;;;6.50;5.90;;;;;;;;;;5101687;28;20214;-67
2022/04/05 02:00:24;;;;;;;6.88;6.18;;;;;;;;;;5101625;28;20204;-67
2022/04/05 02:02:50;;;;;;;7.00;6.40;;;;;;;;;;5101971;28;20196;-67
2022/04/05 02:05:17;;;;;;;6.40;5.88;;;;;;;;;;5101430;28;20220;-67
2022/04/05 02:07:43;;;;;;;7.75;6.43;;;;;;;;;;5102800;28;20241;-67
2022/04/05 02:10:09;;;;;;;6.97;5.93;;;;;;;;;;5105350;28;20199;-67
2022/04/05 02:12:36;;;;;;;9.20;6.88;;;;;;;;;;5105379;28;20257;-67
2022/04/05 02:15:03;;;;;;;6.57;5.97;;;;;;;;;;5105274;28;20421;-67
2022/04/05 02:17:29;;;;;;;6.75;5.93;;;;;;;;;;5105199;28;20204;-67
2022/04/05 02:19:56;;;;;;;7.82;6.25;;;;;;;;;;5105386;28;20200;-67
2022/04/05 02:22:23;;;;;;;10.25;6.53;;;;;;;;;;5105285;28;20203;-67
2022/04/05 02:24:49;;;;;;;7.00;6.30;;;;;;;;;;5104973;28;20257;-67
2022/04/05 02:27:15;;;;;;;6.60;5.95;;;;;;;;;;5104782;28;20387;-68
2022/04/05 02:29:41;;;;;;;6.68;6.07;;;;;;;;;;5104872;28;20199;-68
2022/04/05 02:32:09;;;;;;;6.93;6.32;;;;;;;;;;5104880;28;20196;-67
2022/04/05 02:34:35;;;;;;;7.07;6.18;;;;;;;;;;5105156;28;20191;-68
2022/04/05 02:37:02;;;;;;;6.93;6.32;;;;;;;;;;5104791;28;20196;-67
2022/04/05 02:39:28;;;;;;;7.90;6.93;;;;;;;;;;5105179;28;20195;-67
2022/04/05 02:41:54;;;;;;;8.98;6.60;;;;;;;;;;5104661;28;20233;-67
2022/04/05 02:44:21;;;;;;;8.95;6.68;;;;;;;;;;5104512;28;20220;-68
2022/04/05 02:46:47;;;;;;;7.35;6.68;;;;;;;;;;5104396;28;20233;-67
2022/04/05 02:49:14;;;;;;;6.93;6.30;;;;;;;;;;5104706;28;20476;-67
2022/04/05 02:51:41;;;;;;;6.72;6.18;;;;;;;;;;5104633;28;20195;-67
2022/04/05 02:54:07;;;;;;;6.93;6.22;;;;;;;;;;5104623;28;20200;-67
2022/04/05 02:56:34;;;;;;;7.55;6.80;;;;;;;;;;5104355;28;20303;-67
2022/04/05 02:59:00;;;;;;;6.60;6.03;;;;;;;;;;5104353;28;20203;-67
2022/04/05 03:01:27;;;;;;;6.90;6.22;;;;;;;;;;5104314;28;20249;-67
2022/04/05 03:03:53;;;;;;;6.68;6.13;;;;;;;;;;5104449;28;20216;-68
2022/04/05 03:06:20;;;;;;;7.07;6.43;;;;;;;;;;5104011;28;20261;-67
2022/04/05 03:08:47;;;;;;;6.88;6.18;;;;;;;;;;5104341;28;20212;-67
2022/04/05 03:11:13;;;;;;;7.35;6.68;;;;;;;;;;5104152;28;20196;-67
2022/04/05 03:13:40;;;;;;;7.55;6.47;;;;;;;;;;5104316;28;20195;-68
2022/04/05 03:16:06;;;;;;;8.25;6.38;;;;;;;;;;5103905;28;20250;-68
2022/04/05 03:18:32;;;;;;;7.10;6.07;;;;;;;;;;5104072;28;20192;-67
2022/04/05 03:20:59;;;;;;;8.45;6.57;;;;;;;;;;5103974;28;20195;-67
2022/04/05 03:23:27;;;;;;;7.95;6.80;;;;;;;;;;5103955;28;20199;-67
2022/04/05 03:25:53;;;;;;;7.60;6.68;;;;;;;;;;5103726;28;20250;-67
2022/04/05 03:28:20;;;;;;;8.45;6.75;;;;;;;;;;5103848;28;20196;-67
2022/04/05 03:30:47;;;;;;;6.47;5.88;;;;;;;;;;5104018;28;20266;-67
2022/04/05 03:33:13;;;;;;;6.80;6.20;;;;;;;;;;5103833;28;20195;-67
2022/04/05 03:35:40;;;;;;;16.75;12.30;;;;;;;;;;5103671;28;20230;-67
2022/04/05 03:38:06;;;;;;;10.43;8.68;;;;;;;;;;5103339;28;20260;-67
2022/04/05 03:40:34;;;;;;;7.53;6.75;;;;;;;;;;5103649;28;20217;-67
2022/04/05 03:43:00;;;;;;;7.55;6.80;;;;;;;;;;5103773;28;20195;-67
2022/04/05 03:45:27;;;;;;;7.50;6.80;;;;;;;;;;5103595;28;20211;-67
2022/04/05 03:47:53;;;;;;;8.40;7.50;;;;;;;;;;5103325;28;20393;-67
2022/04/05 03:50:20;;;;;;;8.25;7.00;;;;;;;;;;5103450;28;20195;-67
2022/04/05 03:52:46;;;;;;;9.75;7.93;;;;;;;;;;5103397;28;20256;-68
2022/04/05 03:55:12;;;;;;;7.47;6.78;;;;;;;;;;5103732;28;20192;-67
2022/04/05 03:57:40;;;;;;;8.85;7.63;;;;;;;;;;5103469;28;20195;-68
2022/04/05 04:00:07;;;;;;;9.43;7.50;;;;;;;;;;5103215;28;20204;-68
2022/04/05 04:02:35;;;;;;;10.52;7.20;;;;;;;;;;5103259;28;20231;-67
2022/04/05 04:05:01;;;;;;;8.75;7.93;;;;;;;;;;5103091;28;20211;-67
2022/04/05 04:07:27;;;;;;;7.40;6.55;;;;;;;;;;5103469;28;20253;-68
2022/04/05 04:09:53;;;;;;;6.93;6.18;;;;;;;;;;5103297;28;20249;-67
2022/04/05 04:12:20;;;;;;;7.63;6.90;;;;;;;;;;5103047;28;20425;-67
2022/04/05 04:14:47;;;;;;;6.90;6.30;;;;;;;;;;5103154;28;20229;-68
2022/04/05 04:17:13;;;;;;;8.77;7.25;;;;;;;;;;5102860;28;20200;-68
2022/04/05 04:19:40;;;;;;;7.85;7.03;;;;;;;;;;5102828;28;20240;-68
2022/04/05 04:22:06;;;;;;;10.55;8.30;;;;;;;;;;5102922;28;20200;-68
2022/04/05 04:24:32;;;;;;;8.68;6.50;;;;;;;;;;5102940;28;20220;-68
2022/04/05 04:26:58;;;;;;;9.55;6.93;;;;;;;;;;5102765;28;20203;-68
2022/04/05 04:29:24;;;;;;;9.30;7.00;;;;;;;;;;5102904;28;20500;-68
2022/04/05 04:31:52;;;;;;;8.30;7.50;;;;;;;;;;5102352;28;20241;-67
2022/04/05 04:34:18;;;;;;;6.95;6.35;;;;;;;;;;5102570;28;20200;-68
2022/04/05 04:36:45;;;;;;;7.90;7.10;;;;;;;;;;5102356;28;20196;-69
2022/04/05 04:39:12;;;;;;;7.07;6.38;;;;;;;;;;5102744;28;20195;-69
2022/04/05 04:41:38;;;;;;;8.40;6.50;;;;;;;;;;5102608;28;20227;-69
2022/04/05 04:44:05;;;;;;;6.22;5.70;;;;;;;;;;5102482;28;20200;-69
2022/04/05 04:46:31;;;;;;;7.32;6.50;;;;;;;;;;5102290;28;20200;-69
2022/04/05 04:48:58;;;;;;;8.50;6.55;;;;;;;;;;5102306;28;20203;-69
2022/04/05 04:51:25;;;;;;;8.50;7.35;;;;;;;;;;5102652;28;20241;-69
2022/04/05 04:53:51;;;;;;;7.32;6.63;;;;;;;;;;5102533;28;20249;-69
2022/04/05 04:56:17;;;;;;;7.05;5.55;;;;;;;;;;5102250;28;20195;-69
2022/04/05 04:58:44;;;;;;;7.93;7.07;;;;;;;;;;5102401;28;20200;-69
2022/04/05 05:01:11;;;;;;;7.40;6.63;;;;;;;;;;5102243;28;20557;-69
2022/04/05 05:03:37;;;;;;;7.75;7.05;;;;;;;;;;5102125;28;20196;-69
2022/04/05 05:06:05;;;;;;;6.95;6.35;;;;;;;;;;5102213;28;20231;-69
2022/04/05 05:08:32;;;;;;;6.78;6.22;;;;;;;;;;5102318;28;20196;-69
2022/04/05 05:10:58;;;;;;;7.90;7.20;;;;;;;;;;5102660;28;20233;-69
2022/04/05 05:13:25;;;;;;;8.82;6.57;;;;;;;;;;5102156;28;20196;-69
2022/04/05 05:15:51;;;;;;;8.65;7.10;;;;;;;;;;5102463;28;20200;-69
2022/04/05 05:18:18;;;;;;;11.55;7.70;;;;;;;;;;5101788;28;20200;-69
2022/04/05 05:20:44;;;;;;;10.70;8.48;;;;;;;;;;5102231;28;20204;-69
2022/04/05 05:23:12;;;;;;;7.85;6.97;;;;;;;;;;5102159;28;20249;-69
2022/04/05 05:25:38;;;;;;;10.13;7.53;;;;;;;;;;5102260;28;20231;-69
2022/04/05 05:28:05;;;;;;;8.93;6.95;;;;;;;;;;5101671;28;20195;-69
2022/04/05 05:30:31;;;;;;;8.50;7.60;;;;;;;;;;5101977;28;20220;-69
2022/04/05 05:32:57;;;;;;;9.32;6.78;;;;;;;;;;5101964;28;20199;-69
2022/04/05 05:35:23;;;;;;;7.15;6.47;;;;;;;;;;5102268;28;20531;-69
2022/04/05 05:37:50;;;;;;;6.78;6.07;;;;;;;;;;5101938;28;20436;-69
2022/04/05 05:40:19;;;;;;;7.63;6.68;;;;;;;;;;5102030;28;20221;-69
2022/04/05 05:42:49;;;;;;;7.80;7.00;;;;;;;;;;5102408;28;20196;-69
2022/04/05 05:45:15;;;;;;;8.98;6.82;;;;;;;;;;5105258;28;20212;-69
2022/04/05 05:47:41;;;;;;;7.20;6.60;;;;;;;;;;5105148;28;20204;-69
2022/04/05 05:50:10;;;;;;;8.52;7.55;;;;;;;;;;5105380;28;20425;-69
2022/04/05 05:52:36;;;;;;;7.55;6.72;;;;;;;;;;5105238;28;20234;-69
2022/04/05 05:55:02;;;;;;;7.20;6.60;;;;;;;;;;5105246;28;20191;-69
2022/04/05 05:57:30;;;;;;;9.48;7.63;;;;;;;;;;5104795;28;20196;-69
2022/04/05 05:59:56;;;;;;;9.05;7.55;;;;;;;;;;5104881;28;20267;-69
2022/04/05 06:02:22;;;;;;;8.52;7.63;;;;;;;;;;5105069;28;20507;-69
2022/04/05 06:04:49;;;;;;;13.32;7.90;;;;;;;;;;5104755;28;20219;-69
2022/04/05 06:07:15;;;;;;;8.98;7.57;;;;;;;;;;5104804;28;20200;-69
2022/04/05 06:09:42;;;;;;;7.85;6.93;;;;;;;;;;5104808;28;20203;-69
2022/04/05 06:12:08;;;;;;;10.30;7.72;;;;;;;;;;5105192;28;20289;-68
2022/04/05 06:14:36;;;;;;;10.30;8.13;;;;;;;;;;5104856;28;20208;-68
2022/04/05 06:17:02;;;;;;;8.43;7.03;;;;;;;;;;5105130;28;20233;-68
2022/04/05 06:19:28;;;;;;;11.15;7.90;;;;;;;;;;5105491;28;20196;-68
2022/04/05 06:21:54;;;;;;;8.32;7.53;;;;;;;;;;5105084;28;20196;-68
2022/04/05 06:24:21;;;;;;;11.45;6.72;;;;;;;;;;5105755;28;20417;-70
2022/04/05 06:26:47;;;;;;;11.13;6.90;;;;;;;;;;5101850;28;20227;-61
2022/04/05 06:29:13;;;;;;;7.93;7.13;;;;;;;;;;5087821;28;20253;-60
2022/04/05 06:31:41;;;;;;;7.65;6.80;;;;;;;;;;5090941;28;20238;-62
2022/04/05 06:34:07;;;;;;;6.47;5.97;;;;;;;;;;5099002;28;20207;-62
2022/04/05 06:36:33;;;;;;;6.95;6.18;;;;;;;;;;5099201;28;20242;-60
2022/04/05 06:38:59;;;;;;;7.15;6.13;;;;;;;;;;5098449;28;20216;-59
2022/04/05 06:41:26;;;;;;;7.15;6.03;;;;;;;;;;5098659;28;20215;-61
2022/04/05 06:43:53;;;;;;;7.18;6.10;;;;;;;;;;5098967;28;20447;-61
2022/04/05 06:46:22;;;;;;;6.70;6.07;;;;;;;;;;5098868;28;20227;-62
2022/04/05 06:48:49;;;;;;;8.10;5.80;;;;;;;;;;5099016;28;20265;-60
2022/04/05 06:51:16;;;;;;;11.52;6.50;;;;;;;;;;5099224;28;20377;-61
2022/04/05 06:53:42;;;;;;;6.65;6.05;;;;;;;;;;5099134;28;20215;-60
2022/04/05 06:56:09;;;;;;;8.48;5.63;;;;;;;;;;5098701;28;20245;-59
2022/04/05 06:58:36;;;;;;;9.68;6.82;;;;;;;;;;5098749;28;20467;-60
2022/04/05 07:01:02;;;;;;;8.55;6.35;;;;;;;;;;5098343;28;20438;-60
2022/04/05 07:03:28;;;;;;;7.82;6.05;;;;;;;;;;5098666;28;20515;-60
2022/04/05 07:05:57;;;;;;;6.93;6.25;;;;;;;;;;5098624;28;20450;-62
2022/04/05 07:08:24;;;;;;;8.18;6.30;;;;;;;;;;5098057;28;20208;-58
2022/04/05 07:10:50;;;;;;;7.75;6.70;;;;;;;;;;5097410;28;20207;-62
2022/04/05 07:13:17;;;;;;;7.55;6.82;;;;;;;;;;5098536;28;20439;-58
2022/04/05 07:15:43;;;;;;;6.82;6.00;;;;;;;;;;5098431;28;20204;-60
2022/04/05 07:18:09;;;;;;;6.60;6.10;;;;;;;;;;5096552;28;20575;-60
2022/04/05 07:20:37;;;;;;;7.15;6.00;;;;;;;;;;5098313;28;20410;-61
2022/04/05 07:23:05;;;;;;;7.30;6.22;;;;;;;;;;5098555;28;20214;-62
2022/04/05 07:25:31;;;;;;;7.55;6.75;;;;;;;;;;5098605;28;20227;-60
2022/04/05 07:27:57;;;;;;;9.30;5.63;;;;;;;;;;5098038;28;20463;-60
2022/04/05 07:30:24;;;;;;;7.30;6.60;;;;;;;;;;5098168;28;20207;-60
2022/04/05 07:32:50;;;;;;;7.00;5.85;;;;;;;;;;5098379;28;20255;-63
2022/04/05 07:35:18;;;;;;;8.23;5.75;;;;;;;;;;5098342;28;20556;-62
2022/04/05 07:37:44;;;;;;;6.35;5.75;;;;;;;;;;5097084;28;20396;-63
2022/04/05 07:40:13;;;;;;;8.48;6.60;;;;;;;;;;5098085;28;20265;-62
2022/04/05 07:42:39;;;;;;;6.40;5.80;;;;;;;;;;5097848;28;20208;-63
2022/04/05 07:45:06;;;;;;;8.43;5.85;;;;;;;;;;5097870;28;20204;-62
2022/04/05 07:47:33;;;;;;;6.88;6.30;;;;;;;;;;5097995;28;20261;-62
2022/04/05 07:49:59;;;;;;;6.40;5.78;;;;;;;;;;5097322;28;20257;-62
2022/04/05 07:52:26;;;;;;;8.02;6.30;;;;;;;;;;5096986;28;20262;-59
2022/04/05 07:54:52;;;;;;;6.38;5.85;;;;;;;;;;5094922;28;20204;-60
2022/04/05 07:57:20;;;;;;;9.45;6.10;;;;;;;;;;5096501;28;20241;-60
2022/04/05 07:59:46;;;;;;;6.95;5.70;;;;;;;;;;5096670;28;20219;-60
2022/04/05 08:02:12;;;;;;;9.68;7.00;;;;;;;;;;5097434;28;20207;-60
2022/04/05 08:04:38;;;;;;;6.78;5.93;;;;;;;;;;5091464;28;20481;-60
2022/04/05 08:07:06;;;;;;;7.55;5.53;;;;;;;;;;5096692;28;20578;-63
2022/04/05 08:09:32;;;;;;;7.18;5.70;;;;;;;;;;5096440;28;20213;-63
2022/04/05 08:11:58;;;;;;;6.45;5.43;;;;;;;;;;5097958;28;20249;-61
2022/04/05 08:14:28;;;;;;;7.57;6.05;;;;;;;;;;5097697;28;20242;-64
2022/04/05 08:16:54;;;;;;;6.78;6.18;;;;;;;;;;5096009;28;20231;-61
2022/04/05 08:19:21;;;;;;;7.25;6.65;;;;;;;;;;5097048;28;20253;-60
2022/04/05 08:21:47;;;;;;;8.32;6.45;;;;;;;;;;5097242;28;20487;-59
2022/04/05 08:24:13;;;;;;;6.38;5.75;;;;;;;;;;5095633;28;20254;-62
2022/04/05 08:26:39;;;;;;;6.88;6.18;;;;;;;;;;5096641;28;20230;-59
2022/04/05 08:29:06;;;;;;;7.00;6.30;;;;;;;;;;5096805;28;20253;-62
2022/04/05 08:31:33;;;;;;;6.72;6.03;;;;;;;;;;5097086;28;20260;-59
2022/04/05 08:33:59;;;;;;;6.82;6.22;;;;;;;;;;5096772;28;20435;-63
2022/04/05 08:36:26;;;;;;;6.90;6.00;;;;;;;;;;5096540;28;20499;-60
2022/04/05 08:38:52;;;;;;;8.90;6.45;;;;;;;;;;5096817;28;20286;-60
2022/04/05 08:41:20;;;;;;;8.25;6.40;;;;;;;;;;5096908;28;20207;-60
2022/04/05 08:43:48;;;;;;;7.97;6.18;;;;;;;;;;5096886;28;20539;-62
2022/04/05 08:46:15;;;;;;;7.13;5.30;;;;;;;;;;5096661;28;20223;-63
2022/04/05 08:48:44;;;;;;;10.60;5.53;;;;;;;;;;5096389;28;20245;-63
2022/04/05 08:51:11;;;;;;;5.88;5.40;;;;;;;;;;5096816;28;20199;-61
2022/04/05 08:53:39;;;;;;;8.23;5.75;;;;;;;;;;5096929;28;20277;-63
2022/04/05 08:56:05;;;;;;;5.88;5.30;;;;;;;;;;5096799;28;20399;-63
2022/04/05 08:58:31;;;;;;;7.15;5.20;;;;;;;;;;5096490;28;20265;-63
2022/04/05 09:00:58;;;;;;;5.43;4.93;;;;;;;;;;5096483;28;20543;-61
2022/04/05 09:03:24;;;;;;;6.20;4.80;;;;;;;;;;5094690;28;20245;-61
2022/04/05 09:05:52;;;;;;;8.25;4.78;;;;;;;;;;5095264;28;20280;-61
2022/04/05 09:08:20;;;;;;;6.80;5.47;;;;;;;;;;5095827;28;20534;-61
2022/04/05 09:10:47;;;;;;;6.03;5.47;;;;;;;;;;5097036;28;20541;-61
2022/04/05 09:13:16;;;;;;;7.80;5.47;;;;;;;;;;5097129;28;20632;-60
2022/04/05 09:15:44;;;;;;;6.40;5.22;;;;;;;;;;5096879;28;20234;-61
2022/04/05 09:18:11;;;;;;;6.63;5.18;;;;;;;;;;5099771;28;20450;-61
2022/04/05 09:20:47;;;;;;;6.75;5.05;;;;;;;;;;5100584;28;20207;-61
2022/04/05 09:23:28;;;;;;;6.13;4.93;;;;;;;;;;5100716;28;20543;-61
2022/04/05 09:25:59;;;;;;;5.35;4.95;;;;;;;;;;5100382;28;20542;-61
2022/04/05 09:28:32;;;;;;;6.55;4.85;;;;;;;;;;5099987;28;20409;-60
2022/04/05 09:30:59;;;;;;;4.90;4.47;;;;;;;;;;5100276;28;20208;-61
2022/04/05 09:33:28;;;;;;;5.40;5.00;;;;;;;;;;5100430;28;20360;-61
2022/04/05 09:36:02;;;;;;;5.18;4.78;;;;;;;;;;5100398;28;20204;-61
2022/04/05 09:38:30;;;;;;;4.93;4.53;;;;;;;;;;5100061;28;20436;-61
2022/04/05 09:41:08;;;;;;;4.85;4.43;;;;;;;;;;5100094;28;20208;-61
2022/04/05 09:43:35;;;;;;;7.07;5.85;;;;;;;;;;5100731;28;20559;-61
2022/04/05 09:46:01;;;;;;;6.22;4.75;;;;;;;;;;5100065;28;20231;-63
2022/04/05 09:48:30;;;;;;;5.65;4.75;;;;;;;;;;5099500;28;20276;-63
2022/04/05 09:50:58;;;;;;;4.90;4.30;;;;;;;;;;5100413;28;20207;-63
2022/04/05 09:53:25;;;;;;;4.85;4.45;;;;;;;;;;5100472;28;20212;-62
2022/04/05 09:56:02;;;;;;;4.45;4.05;;;;;;;;;;5100372;28;20207;-63
2022/04/05 09:58:29;;;;;;;5.68;4.68;;;;;;;;;;5099682;28;20245;-63
2022/04/05 10:01:05;;;;;;;5.05;4.47;;;;;;;;;;5099874;28;20357;-63
2022/04/05 10:03:31;;;;;;;4.88;4.45;;;;;;;;;;5100272;28;20242;-63
2022/04/05 10:05:57;;;;;;;4.63;4.25;;;;;;;;;;5099511;28;20227;-62
2022/04/05 10:08:24;;;;;;;5.70;4.80;;;;;;;;;;5099641;28;20203;-63
2022/04/05 10:10:51;;;;;;;4.68;4.38;;;;;;;;;;5099861;28;20449;-62
2022/04/05 10:13:19;;;;;;;5.45;4.97;;;;;;;;;;5099526;28;20208;-62
2022/04/05 10:15:48;;;;;;;4.75;4.35;;;;;;;;;;5099672;28;20214;-62
2022/04/05 10:18:15;;;;;;;4.57;4.28;;;;;;;;;;5099008;28;20208;-62
2022/04/05 10:20:41;;;;;;;4.88;4.47;;;;;;;;;;5099598;28;20253;-60
2022/04/05 10:23:08;;;;;;;6.40;4.70;;;;;;;;;;5099521;28;20252;-60
2022/04/05 10:25:34;;;;;;;6.05;5.45;;;;;;;;;;5099831;28;20207;-59
2022/04/05 10:28:01;;;;;;;5.75;5.18;;;;;;;;;;5098958;28;20231;-62
2022/04/05 10:30:33;;;;;;;5.90;5.22;;;;;;;;;;5099407;28;20207;-62
2022/04/05 10:33:07;;;;;;;7.22;5.47;;;;;;;;;;5099419;28;20549;-60
2022/04/05 10:35:39;;;;;;;6.20;4.70;;;;;;;;;;5099622;28;20207;-61
2022/04/05 10:38:12;;;;;;;5.63;4.85;;;;;;;;;;5098680;28;20261;-62
2022/04/05 10:40:38;;;;;;;6.75;5.07;;;;;;;;;;5098912;28;20561;-60
2022/04/05 10:43:15;;;;;;;6.57;4.68;;;;;;;;;;5098910;28;20212;-60
2022/04/05 10:45:44;;;;;;;7.85;4.63;;;;;;;;;;5099318;28;20610;-60
2022/04/05 10:48:12;;;;;;;5.32;4.68;;;;;;;;;;5098369;28;20424;-60
2022/04/05 10:50:38;;;;;;;5.03;4.63;;;;;;;;;;5098678;28;20207;-61
2022/04/05 10:53:12;;;;;;;4.93;4.53;;;;;;;;;;5098714;28;20208;-62
2022/04/05 10:55:53;;;;;;;4.45;4.00;;;;;;;;;;5099000;28;20515;-61
2022/04/05 10:58:19;;;;;;;5.03;4.38;;;;;;;;;;5098238;28;20200;-63
2022/04/05 11:00:47;;;;;;;5.45;4.78;;;;;;;;;;5098362;28;20257;-63
2022/04/05 11:03:14;;;;;;;4.40;4.00;;;;;;;;;;5098382;28;20207;-63
2022/04/05 11:05:41;;;;;;;5.68;4.00;;;;;;;;;;5098478;28;20267;-63
2022/04/05 11:08:12;;;;;;;5.55;5.05;;;;;;;;;;5097894;28;20298;-63
2022/04/05 11:10:54;;;;;;;4.22;3.88;;;;;;;;;;5097932;28;20438;-62
2022/04/05 11:13:31;;;;;;;4.68;4.28;;;;;;;;;;5098734;28;20211;-63
2022/04/05 11:15:59;;;;;;;4.70;4.30;;;;;;;;;;5098533;28;20242;-63
2022/04/05 11:18:26;;;;;;;4.90;4.38;;;;;;;;;;5098230;28;20460;-60
2022/04/05 11:20:56;;;;;;;5.75;4.40;;;;;;;;;;5098465;28;20215;-63
2022/04/05 11:23:39;;;;;;;4.50;4.13;;;;;;;;;;5098357;28;20211;-63
2022/04/05 11:26:20;;;;;;;4.90;4.53;;;;;;;;;;5098037;28;20211;-63
2022/04/05 11:28:46;;;;;;;6.53;4.80;;;;;;;;;;5098275;28;20223;-63
2022/04/05 11:31:26;;;;;;;6.18;4.18;;;;;;;;;;5097662;28;20238;-62
2022/04/05 11:33:53;;;;;;;4.45;4.05;;;;;;;;;;5089289;28;20515;-62
2022/04/05 11:36:22;;;;;;;4.75;4.35;;;;;;;;;;5087380;28;20730;-62
2022/04/05 11:38:49;;;;;;;4.68;4.35;;;;;;;;;;5080165;28;20519;-62
2022/04/05 11:41:20;;;;;;;4.28;3.97;;;;;;;;;;5076467;28;20208;-62
2022/04/05 11:43:47;;;;;;;5.53;4.55;;;;;;;;;;5077776;28;20258;-62
2022/04/05 11:46:15;;;;;;;4.50;4.13;;;;;;;;;;5077672;28;20200;-62
2022/04/05 11:48:43;;;;;;;6.15;4.25;;;;;;;;;;5087549;28;20756;-62
2022/04/05 11:51:10;;;;;;;4.80;4.43;;;;;;;;;;5097709;28;20245;-62
2022/04/05 11:53:37;;;;;;;4.40;4.10;;;;;;;;;;5097807;28;20212;-61
2022/04/05 11:56:08;;;;;;;4.60;3.88;;;;;;;;;;5096744;28;20262;-61
2022/04/05 11:58:35;;;;;;;5.00;4.60;;;;;;;;;;5097207;28;20361;-62
2022/04/05 12:01:03;;;;;;;8.30;3.97;;;;;;;;;;5096492;28;20211;-61
2022/04/05 12:03:30;;;;;;;4.55;4.13;;;;;;;;;;5096928;28;20386;-61
2022/04/05 12:05:57;;;;;;;5.30;4.47;;;;;;;;;;5096991;28;20266;-61
2022/04/05 12:08:23;;;;;;;6.25;4.13;;;;;;;;;;5096495;28;20249;-60
2022/04/05 12:10:49;;;;;;;5.03;4.50;;;;;;;;;;5096370;28;20389;-62
2022/04/05 12:13:26;;;;;;;6.72;4.38;;;;;;;;;;5096582;28;20212;-62
2022/04/05 12:15:57;;;;;;;4.88;4.40;;;;;;;;;;5096657;28;20244;-61
2022/04/05 12:18:24;;;;;;;3.85;3.65;;;;;;;;;;5096280;28;20269;-61
2022/04/05 12:20:55;;;;;;;4.75;4.38;;;;;;;;;;5096480;28;20274;-62
2022/04/05 12:23:22;;;;;;;5.93;4.60;;;;;;;;;;5096399;28;20276;-61
2022/04/05 12:26:06;;;;;;;4.93;4.43;;;;;;;;;;5096609;28;20514;-61
2022/04/05 12:28:32;;;;;;;6.72;4.13;;;;;;;;;;5096417;28;20238;-62
2022/04/05 12:31:09;;;;;;;4.55;4.20;;;;;;;;;;5096250;28;20211;-59
2022/04/05 12:33:36;;;;;;;6.40;5.05;;;;;;;;;;5096550;28;20260;-60
2022/04/05 12:36:04;;;;;;;5.18;4.72;;;;;;;;;;5096713;28;20208;-60
2022/04/05 12:38:30;;;;;;;4.70;4.30;;;;;;;;;;5096416;28;20227;-60
2022/04/05 12:40:57;;;;;;;5.95;4.80;;;;;;;;;;5096110;28;20208;-60
2022/04/05 12:43:23;;;;;;;5.22;4.82;;;;;;;;;;5096457;28;20208;-60
2022/04/05 12:45:50;;;;;;;5.15;4.75;;;;;;;;;;5096386;28;20370;-60
2022/04/05 12:48:17;;;;;;;4.03;3.72;;;;;;;;;;5095691;28;20231;-61
2022/04/05 12:50:44;;;;;;;4.40;4.00;;;;;;;;;;5096049;28;20273;-61
2022/04/05 12:53:13;;;;;;;4.47;4.07;;;;;;;;;;5096220;28;20382;-62
2022/04/05 12:55:39;;;;;;;4.47;4.13;;;;;;;;;;5096033;28;20208;-62
2022/04/05 12:58:07;;;;;;;4.10;3.70;;;;;;;;;;5095643;28;20226;-62
2022/04/05 13:00:42;;;;;;;4.93;3.45;;;;;;;;;;5095968;28;20216;-62
2022/04/05 13:03:10;;;;;;;4.35;3.95;;;;;;;;;;5096030;28;20436;-61
2022/04/05 13:08:28;;;;;;;4.20;3.90;;;;;;;;;;5095595;28;20231;-61
2022/04/05 13:10:55;;;;;;;3.95;3.75;;;;;;;;;;5096169;28;20567;-62
2022/04/05 13:13:22;;;;;;;4.25;3.83;;;;;;;;;;5095725;28;20215;-62
2022/04/05 13:15:49;;;;;;;5.88;3.80;;;;;;;;;;5096301;28;20359;-62
2022/04/05 13:18:15;;;;;;;4.05;3.47;;;;;;;;;;5095636;28;20200;-61
2022/04/05 13:20:42;;;;;;;3.55;3.35;;;;;;;;;;5095714;28;20245;-62
2022/04/05 13:23:12;;;;;;;3.97;3.67;;;;;;;;;;5095750;28;20261;-61
2022/04/05 13:25:40;;;;;;;3.92;3.50;;;;;;;;;;5095587;28;20235;-62
2022/04/05 13:28:08;;;;;;;3.40;3.10;;;;;;;;;;5095553;28;20603;-61
2022/04/05 13:30:40;;;;;;;3.88;3.60;;;;;;;;;;5095650;28;20208;-62
2022/04/05 13:33:07;;;;;;;4.05;3.75;;;;;;;;;;5095981;28;20249;-62
2022/04/05 13:35:33;;;;;;;4.60;3.67;;;;;;;;;;5096132;28;20239;-62
2022/04/05 13:38:00;;;;;;;3.33;3.05;;;;;;;;;;5095573;28;20231;-62
2022/04/05 13:40:26;;;;;;;3.72;3.53;;;;;;;;;;5094804;28;20261;-62
2022/04/05 13:42:54;;;;;;;4.88;3.55;;;;;;;;;;5095534;28;20291;-62
2022/04/05 13:45:21;;;;;;;4.10;3.70;;;;;;;;;;5095695;28;20235;-61
2022/04/05 13:47:47;;;;;;;3.75;3.40;;;;;;;;;;5095706;28;20227;-62
2022/04/05 13:50:13;;;;;;;3.25;2.97;;;;;;;;;;5095153;28;20212;-61
2022/04/05 13:52:40;;;;;;;3.53;3.20;;;;;;;;;;5095400;28;20204;-62
2022/04/05 13:55:06;;;;;;;3.33;3.15;;;;;;;;;;5095523;28;20212;-62
2022/04/05 13:57:33;;;;;;;4.20;3.80;;;;;;;;;;5095383;28;20208;-61
2022/04/05 14:00:00;;;;;;;3.47;3.28;;;;;;;;;;5094933;28;20220;-62
2022/04/05 14:02:26;;;;;;;4.03;3.33;;;;;;;;;;5095479;28;20262;-62
2022/04/05 14:04:53;;;;;;;4.97;3.25;;;;;;;;;;5098072;28;20245;-63
2022/04/05 14:07:19;;;;;;;3.53;3.33;;;;;;;;;;5097835;28;20220;-62
2022/04/05 14:09:45;;;;;;;3.67;3.40;;;;;;;;;;5099161;28;20207;-63
2022/04/05 14:12:12;;;;;;;3.55;3.28;;;;;;;;;;5099231;28;20226;-62
2022/04/05 14:14:38;;;;;;;3.60;3.28;;;;;;;;;;5099319;28;20208;-61
2022/04/05 14:17:06;;;;;;;4.18;3.53;;;;;;;;;;5099106;28;20253;-61
2022/04/05 14:19:32;;;;;;;4.72;3.58;;;;;;;;;;5095732;28;20205;-62
2022/04/05 14:21:58;;;;;;;3.38;3.05;;;;;;;;;;5081975;28;20200;-61
2022/04/05 14:24:25;;;;;;;3.08;2.88;;;;;;;;;;5099106;28;20276;-62
2022/04/05 14:26:51;;;;;;;5.55;3.38;;;;;;;;;;5098860;28;20249;-62
2022/04/05 14:29:17;;;;;;;3.45;3.25;;;;;;;;;;5099023;28;20277;-62
2022/04/05 14:31:45;;;;;;;3.47;3.28;;;;;;;;;;5099383;28;20235;-62
2022/04/05 14:34:13;;;;;;;5.90;3.13;;;;;;;;;;5099627;28;20195;-61
2022/04/05 14:36:39;;;;;;;3.60;3.30;;;;;;;;;;5099082;28;20576;-62
2022/04/05 14:39:07;;;;;;;3.45;3.08;;;;;;;;;;5098327;28;20207;-62
2022/04/05 14:41:33;;;;;;;4.55;2.80;;;;;;;;;;5098049;28;20200;-62
2022/04/05 14:44:00;;;;;;;3.35;3.05;;;;;;;;;;5097864;28;20749;-62
2022/04/05 14:46:27;;;;;;;3.40;3.20;;;;;;;;;;5097601;28;20253;-62